Rechercher aéroport 
image banner adimage banner adimage banner ad
image banner ad

33CN - Platform Hillhouse

Situé à Carpinteria, United States

ICAO - 33CN, IATA -

Données fournies par Airmate  

Information générale

Coordonnées: N34°19'52" W119°36'16"
Élévation : 98 feet MSL.
Variation magnétique : 14° East
Voir autres Aéroports à California

Données opérationnelles

Special qualification required
Heure actuelle UTC:
Heure actuelle locale:
Météo à : KSBA - Santa Barbara Muni ( 24 km )
METAR: KSBA 292053Z 25010KT 10SM CLR 23/15 A2991 RMK AO2 SLP128 T02280150 57010
TAF: KSBA 291736Z 2918/3018 22006KT P6SM SCT006 FM292000 24010KT P6SM SKC FM300300 VRB03KT P6SM SKC FM301000 VRB03KT 5SM BR OVC005
Voir NOTAMs / SUP AIP / TFR affectant cet aéroport [VIEW]
Fréquences de communication: [VIEW]

Pistes:

Coordonnées de l'aéroport

Adresse: Carpinteria United States

Vue satellite de 33CN